createdAt,value
2017-05-03T00:00:51.801Z,4.08
2017-05-03T00:03:20.119Z,4.60
2017-05-03T00:05:48.393Z,4.42
2017-05-03T00:08:16.671Z,3.90
2017-05-03T00:10:44.984Z,3.82
2017-05-03T00:13:13.257Z,4.33
2017-05-03T00:15:41.538Z,4.30
2017-05-03T00:18:09.845Z,3.68
2017-05-03T00:20:38.117Z,3.87
2017-05-03T00:23:06.388Z,4.15
2017-05-03T00:25:34.696Z,4.28
2017-05-03T00:28:03.718Z,4.62
2017-05-03T00:30:31.986Z,3.88
2017-05-03T00:33:00.298Z,4.30
2017-05-03T00:35:28.577Z,4.83
2017-05-03T00:37:56.853Z,3.98
2017-05-03T00:40:25.176Z,3.98
2017-05-03T00:42:54.211Z,3.62
2017-05-03T00:45:22.483Z,4.22
2017-05-03T00:47:50.801Z,4.22
2017-05-03T00:50:19.077Z,3.95
2017-05-03T00:52:47.362Z,3.73
2017-05-03T00:55:15.677Z,3.68
2017-05-03T00:57:43.949Z,4.05
2017-05-03T01:00:12.228Z,3.90
2017-05-03T01:02:40.539Z,4.50
2017-05-03T01:05:08.817Z,4.12
2017-05-03T01:07:37.098Z,3.75
2017-05-03T01:10:05.413Z,3.07
2017-05-03T01:12:33.689Z,4.10
2017-05-03T01:15:01.961Z,4.18
2017-05-03T01:17:30.285Z,3.57
2017-05-03T01:19:58.561Z,3.38
2017-05-03T01:22:26.844Z,4.85
2017-05-03T01:24:55.173Z,3.85
2017-05-03T01:27:23.452Z,3.53
2017-05-03T01:29:51.736Z,4.32
2017-05-03T01:32:20.049Z,4.20
2017-05-03T01:34:49.061Z,3.90
2017-05-03T01:37:17.337Z,3.72
2017-05-03T01:39:45.665Z,4.07
2017-05-03T01:42:13.949Z,3.95
2017-05-03T01:44:42.232Z,4.05
2017-05-03T01:47:10.534Z,3.58
2017-05-03T01:49:39.557Z,4.25
2017-05-03T01:52:07.865Z,3.80
2017-05-03T01:54:36.183Z,3.73
2017-05-03T01:57:05.205Z,3.53
2017-05-03T01:59:33.486Z,4.40
2017-05-03T02:02:01.781Z,3.70
2017-05-03T02:04:30.070Z,3.58
2017-05-03T02:06:58.351Z,4.33
2017-05-03T02:09:26.677Z,4.02
2017-05-03T02:11:54.948Z,4.20
2017-05-03T02:14:23.970Z,4.18
2017-05-03T02:16:52.315Z,3.75
2017-05-03T02:19:21.341Z,4.03
2017-05-03T02:21:49.633Z,3.23
2017-05-03T02:24:17.936Z,3.97
2017-05-03T02:26:46.242Z,4.55
2017-05-03T02:29:15.253Z,3.77
2017-05-03T02:31:43.570Z,3.93
2017-05-03T02:34:11.846Z,4.53
2017-05-03T02:36:40.123Z,4.72
2017-05-03T02:39:08.474Z,3.87
2017-05-03T02:41:36.752Z,3.75
2017-05-03T02:44:05.027Z,3.98
2017-05-03T02:46:33.350Z,3.98
2017-05-03T02:49:01.645Z,3.63
2017-05-03T02:51:29.918Z,4.02
2017-05-03T02:53:58.794Z,3.92
2017-05-03T02:56:27.067Z,3.37
2017-05-03T02:58:55.355Z,3.67
2017-05-03T03:01:23.686Z,3.33
2017-05-03T03:03:51.962Z,4.05
2017-05-03T03:06:20.257Z,3.63
2017-05-03T03:08:48.568Z,3.65
2017-05-03T03:11:16.841Z,3.78
2017-05-03T03:13:45.118Z,3.87
2017-05-03T03:16:13.416Z,3.80
2017-05-03T03:18:41.701Z,4.05
2017-05-03T03:21:09.986Z,4.00
2017-05-03T03:23:39.062Z,4.53
2017-05-03T03:26:07.341Z,4.13
2017-05-03T03:28:35.618Z,4.17
2017-05-03T03:31:03.928Z,4.03
2017-05-03T03:33:32.949Z,4.17
2017-05-03T03:36:01.236Z,4.28
2017-05-03T03:38:29.553Z,4.03
2017-05-03T03:40:57.833Z,4.25
2017-05-03T03:43:26.113Z,4.18
2017-05-03T03:45:54.413Z,4.45
2017-05-03T03:48:23.438Z,3.55
2017-05-03T03:50:51.717Z,3.52
2017-05-03T03:53:20.041Z,4.50
2017-05-03T03:55:48.325Z,4.40
2017-05-03T03:58:17.349Z,4.15
2017-05-03T04:00:45.665Z,4.27
2017-05-03T04:03:13.945Z,3.92
2017-05-03T04:05:42.225Z,4.67
2017-05-03T04:08:10.533Z,3.70
2017-05-03T04:10:38.818Z,3.70
2017-05-03T04:13:07.839Z,3.50
2017-05-03T04:15:36.157Z,3.92
2017-05-03T04:18:04.431Z,3.20
2017-05-03T04:20:32.702Z,3.37
2017-05-03T04:23:01.016Z,3.63
2017-05-03T04:25:29.289Z,4.22
2017-05-03T04:27:57.560Z,3.32
2017-05-03T04:30:25.868Z,3.30
2017-05-03T04:32:54.890Z,3.30
2017-05-03T04:35:23.174Z,3.48
2017-05-03T04:37:51.481Z,3.20
2017-05-03T04:40:19.759Z,3.58
2017-05-03T04:42:48.033Z,3.10
2017-05-03T04:45:16.357Z,3.62
2017-05-03T04:47:45.377Z,3.35
2017-05-03T04:50:13.653Z,3.57
2017-05-03T04:52:41.957Z,3.03
2017-05-03T04:55:10.237Z,3.47
2017-05-03T04:57:38.522Z,3.73
2017-05-03T05:00:06.825Z,3.08
2017-05-03T05:02:35.113Z,3.22
2017-05-03T05:05:04.181Z,3.00
2017-05-03T05:07:32.510Z,2.95
2017-05-03T05:10:00.785Z,3.30
2017-05-03T05:12:29.065Z,3.32
2017-05-03T05:14:57.381Z,2.90
2017-05-03T05:17:25.661Z,3.42
2017-05-03T05:19:53.978Z,3.68
2017-05-03T05:22:23.024Z,3.65
2017-05-03T05:24:51.310Z,2.93
2017-05-03T05:27:19.585Z,3.32
2017-05-03T05:29:47.918Z,3.77
2017-05-03T05:32:16.943Z,2.92
2017-05-03T05:34:45.222Z,3.10
2017-05-03T05:37:13.525Z,3.28
2017-05-03T05:39:41.809Z,3.57
2017-05-03T05:42:10.091Z,3.95
2017-05-03T05:44:38.410Z,3.20
2017-05-03T05:47:05.915Z,3.28
2017-05-03T05:49:34.193Z,3.40
2017-05-03T05:52:02.513Z,3.35
2017-05-03T05:54:32.425Z,3.25
2017-05-03T05:57:00.729Z,3.45
2017-05-03T05:59:29.057Z,3.60
2017-05-03T06:01:57.339Z,3.70
2017-05-03T06:04:25.623Z,3.98
2017-05-03T06:06:53.945Z,3.20
2017-05-03T06:09:22.228Z,4.03
2017-05-03T06:11:50.512Z,3.52
2017-05-03T06:14:18.843Z,3.48
2017-05-03T06:16:47.874Z,4.18
2017-05-03T06:19:16.155Z,4.13
2017-05-03T06:21:44.458Z,3.38
2017-05-03T06:24:12.736Z,4.00
2017-05-03T06:26:41.025Z,4.83
2017-05-03T06:29:09.348Z,3.55
2017-05-03T06:31:38.364Z,3.55
2017-05-03T06:34:06.645Z,4.35
2017-05-03T06:36:34.950Z,3.93
2017-05-03T06:39:03.247Z,4.07
2017-05-03T06:41:32.284Z,3.63
2017-05-03T06:44:00.605Z,4.07
2017-05-03T06:46:28.885Z,3.58
2017-05-03T06:48:57.162Z,4.05
2017-05-03T06:51:25.477Z,3.52
2017-05-03T06:53:54.496Z,3.68
2017-05-03T06:56:22.784Z,4.37
2017-05-03T06:58:51.106Z,4.23
2017-05-03T07:01:19.385Z,3.15
2017-05-03T07:03:47.669Z,3.57
2017-05-03T07:06:15.997Z,4.07
2017-05-03T07:08:44.285Z,3.72
2017-05-03T07:11:12.566Z,3.68
2017-05-03T07:13:40.872Z,4.10
2017-05-03T07:16:09.154Z,3.85
2017-05-03T07:18:37.429Z,4.07
2017-05-03T07:21:05.762Z,3.92
2017-05-03T07:23:34.046Z,4.40
2017-05-03T07:26:02.324Z,3.43
2017-05-03T07:28:30.638Z,3.72
2017-05-03T07:30:58.953Z,3.68
2017-05-03T07:33:27.233Z,3.65
2017-05-03T07:35:55.973Z,3.25
2017-05-03T07:38:24.246Z,4.45
2017-05-03T07:40:52.529Z,3.57
2017-05-03T07:43:20.837Z,3.53
2017-05-03T07:45:49.879Z,3.52
2017-05-03T07:48:18.161Z,4.15
2017-05-03T07:50:46.482Z,3.50
2017-05-03T07:53:14.773Z,3.60
2017-05-03T07:55:43.801Z,3.58
2017-05-03T07:58:12.113Z,3.72
2017-05-03T08:00:40.394Z,3.55
2017-05-03T08:03:08.680Z,3.72
2017-05-03T08:05:37.013Z,3.57
2017-05-03T08:08:05.289Z,3.37
2017-05-03T08:10:33.578Z,3.97
2017-05-03T08:13:01.897Z,3.40
2017-05-03T08:15:30.190Z,3.77
2017-05-03T08:17:59.212Z,3.77
2017-05-03T08:20:27.528Z,3.68
2017-05-03T08:22:55.813Z,3.87
2017-05-03T08:25:24.107Z,3.58
2017-05-03T08:27:52.437Z,3.32
2017-05-03T08:30:20.721Z,3.63
2017-05-03T08:32:49.009Z,3.68
2017-05-03T08:35:17.341Z,3.27
2017-05-03T08:37:46.376Z,3.27
2017-05-03T08:40:14.661Z,3.47
2017-05-03T08:42:42.986Z,3.87
2017-05-03T08:45:12.016Z,3.67
2017-05-03T08:47:40.309Z,3.25
2017-05-03T08:50:08.640Z,3.62
2017-05-03T08:52:37.676Z,3.00
2017-05-03T08:55:05.964Z,3.58
2017-05-03T08:57:34.294Z,3.17
2017-05-03T09:00:03.355Z,3.44
2017-05-03T09:02:31.634Z,3.14
2017-05-03T09:04:59.967Z,3.32
2017-05-03T09:07:28.252Z,3.42
2017-05-03T09:09:56.533Z,3.10
2017-05-03T09:12:24.859Z,2.86
2017-05-03T09:14:53.149Z,3.26
2017-05-03T09:17:21.450Z,2.78
2017-05-03T09:19:50.509Z,3.20
2017-05-03T09:22:18.794Z,3.38
2017-05-03T09:24:47.077Z,3.20
2017-05-03T09:27:15.411Z,3.36
2017-05-03T09:29:43.702Z,3.30
2017-05-03T09:32:11.993Z,3.44
2017-05-03T09:34:40.308Z,3.70
2017-05-03T09:37:09.361Z,2.88
2017-05-03T09:39:37.644Z,3.18
2017-05-03T09:42:05.969Z,3.50
2017-05-03T09:44:34.260Z,2.82
2017-05-03T09:47:02.540Z,2.94
2017-05-03T09:49:30.865Z,3.72
2017-05-03T09:51:59.164Z,3.26
2017-05-03T09:54:28.190Z,3.58
2017-05-03T09:57:00.146Z,3.44
2017-05-03T09:59:28.429Z,3.54
2017-05-03T10:01:56.718Z,3.50
2017-05-03T10:04:25.044Z,3.65
2017-05-03T10:06:53.330Z,3.70
2017-05-03T10:09:21.612Z,2.78
2017-05-03T10:11:49.959Z,3.32
2017-05-03T10:14:18.238Z,3.20
2017-05-03T10:16:46.538Z,4.04
2017-05-03T10:19:14.860Z,4.12
2017-05-03T10:21:43.136Z,4.22
2017-05-03T10:24:11.417Z,4.00
2017-05-03T10:26:39.737Z,3.92
2017-05-03T10:29:08.013Z,4.50
2017-05-03T10:31:36.312Z,4.34
2017-05-03T10:34:04.639Z,3.90
2017-05-03T10:36:32.925Z,4.20
2017-05-03T10:39:01.217Z,4.02
2017-05-03T10:41:29.546Z,4.12
2017-05-03T10:43:57.836Z,4.85
2017-05-03T10:46:26.133Z,4.60
2017-05-03T10:48:54.447Z,3.78
2017-05-03T10:51:22.737Z,4.23
2017-05-03T10:53:51.033Z,4.40
2017-05-03T10:56:20.099Z,4.03
2017-05-03T10:58:48.385Z,3.62
2017-05-03T11:01:17.418Z,4.33
2017-05-03T11:03:45.726Z,4.16
2017-05-03T11:06:14.010Z,4.42
2017-05-03T11:08:42.304Z,4.35
2017-05-03T11:11:10.629Z,4.55
2017-05-03T11:13:38.940Z,4.82
2017-05-03T11:16:07.233Z,4.42
2017-05-03T11:18:35.563Z,4.65
2017-05-03T11:21:03.848Z,4.77
2017-05-03T11:23:32.138Z,4.98
2017-05-03T11:26:00.473Z,4.80
2017-05-03T11:28:29.509Z,4.90
2017-05-03T11:30:57.798Z,4.76
2017-05-03T11:33:26.130Z,5.97
2017-05-03T11:35:55.174Z,5.42
2017-05-03T11:38:23.472Z,4.64
2017-05-03T11:40:51.792Z,5.04
2017-05-03T11:43:20.091Z,5.40
2017-05-03T11:45:48.373Z,4.70
2017-05-03T11:48:16.744Z,6.18
2017-05-03T11:50:45.029Z,5.82
2017-05-03T11:53:13.362Z,6.18
2017-05-03T11:55:42.453Z,6.30
2017-05-03T11:58:10.750Z,6.04
2017-05-03T12:00:39.045Z,5.64
2017-05-03T12:03:07.372Z,5.14
2017-05-03T12:05:35.664Z,5.90
2017-05-03T12:08:03.956Z,5.68
2017-05-03T12:10:32.284Z,5.73
2017-05-03T12:13:00.569Z,5.54
2017-05-03T12:15:28.848Z,6.40
2017-05-03T12:17:57.169Z,6.06
2017-05-03T12:20:25.446Z,5.36
2017-05-03T12:22:53.726Z,5.58
2017-05-03T12:25:22.047Z,5.78
2017-05-03T12:27:50.337Z,5.96
2017-05-03T12:30:18.613Z,5.10
2017-05-03T12:32:46.936Z,6.68
2017-05-03T12:35:15.220Z,5.36
2017-05-03T12:37:43.500Z,6.64
2017-05-03T12:40:11.843Z,6.30
2017-05-03T12:42:40.127Z,6.00
2017-05-03T12:45:08.413Z,5.68
2017-05-03T12:47:36.746Z,5.84
2017-05-03T12:50:05.036Z,5.78
2017-05-03T12:52:33.329Z,5.98
2017-05-03T12:55:01.653Z,6.10
2017-05-03T12:57:30.682Z,5.98
2017-05-03T12:59:58.973Z,6.64
2017-05-03T13:02:27.292Z,6.02
2017-05-03T13:04:55.573Z,5.70
2017-05-03T13:07:23.852Z,5.62
2017-05-03T13:09:52.165Z,5.72
2017-05-03T13:12:20.445Z,6.36
2017-05-03T13:14:48.733Z,5.80
2017-05-03T13:17:17.091Z,6.22
2017-05-03T13:19:45.822Z,6.34
2017-05-03T13:22:14.128Z,5.94
2017-05-03T13:24:42.450Z,5.18
2017-05-03T13:27:10.734Z,6.96
2017-05-03T13:29:39.023Z,6.08
2017-05-03T13:32:07.347Z,7.90
2017-05-03T13:34:35.639Z,7.20
2017-05-03T13:37:04.657Z,6.92
2017-05-03T13:39:32.973Z,7.08
2017-05-03T13:42:01.261Z,6.60
2017-05-03T13:44:29.545Z,6.88
2017-05-03T13:46:57.864Z,6.48
2017-05-03T13:49:26.149Z,7.58
2017-05-03T13:51:54.430Z,8.14
2017-05-03T13:54:22.745Z,7.56
2017-05-03T13:56:51.036Z,7.50
2017-05-03T13:59:19.317Z,6.98
2017-05-03T14:01:47.640Z,7.12
2017-05-03T14:04:15.923Z,6.90
2017-05-03T14:06:44.205Z,6.56
2017-05-03T14:09:12.525Z,6.94
2017-05-03T14:11:40.812Z,7.48
2017-05-03T14:14:09.095Z,7.20
2017-05-03T14:16:37.422Z,6.38
2017-05-03T14:19:05.704Z,6.54
2017-05-03T14:21:33.993Z,6.78
2017-05-03T14:24:02.320Z,7.22
2017-05-03T14:26:31.353Z,6.00
2017-05-03T14:28:59.639Z,7.18
2017-05-03T14:31:27.965Z,6.92
2017-05-03T14:33:56.990Z,5.98
2017-05-03T14:36:25.268Z,6.16
2017-05-03T14:38:53.565Z,6.80
2017-05-03T14:41:21.856Z,5.86
2017-05-03T14:43:50.141Z,6.18
2017-05-03T14:46:18.465Z,6.70
2017-05-03T14:48:47.485Z,6.38
2017-05-03T14:51:15.762Z,5.52
2017-05-03T14:53:44.097Z,6.50
2017-05-03T14:56:13.122Z,7.30
2017-05-03T14:58:41.400Z,6.80
2017-05-03T15:01:09.721Z,6.62
2017-05-03T15:03:38.003Z,5.98
2017-05-03T15:06:06.300Z,6.36
2017-05-03T15:08:34.628Z,6.20
2017-05-03T15:11:02.917Z,6.74
2017-05-03T15:13:31.192Z,5.26
2017-05-03T15:15:59.520Z,5.84
2017-05-03T15:18:28.544Z,5.50
2017-05-03T15:20:56.841Z,5.36
2017-05-03T15:23:25.168Z,6.20
2017-05-03T15:25:54.220Z,6.52
2017-05-03T15:28:22.510Z,6.68
2017-05-03T15:30:50.840Z,6.40
2017-05-03T15:33:19.860Z,5.70
2017-05-03T15:35:48.141Z,4.50
2017-05-03T15:38:16.465Z,4.16
2017-05-03T15:40:44.745Z,4.36
2017-05-03T15:43:13.033Z,4.14
2017-05-03T15:45:41.352Z,2.36
2017-05-03T15:48:09.630Z,1.92
2017-05-03T15:50:37.962Z,2.12
2017-05-03T15:53:06.278Z,1.98
2017-05-03T15:55:34.615Z,2.10
2017-05-03T15:58:02.902Z,2.40
2017-05-03T16:00:31.225Z,1.88
2017-05-03T16:02:59.505Z,2.17
2017-05-03T16:05:27.789Z,1.65
2017-05-03T16:07:56.108Z,1.67
2017-05-03T16:10:24.394Z,2.07
2017-05-03T16:12:52.680Z,2.07
2017-05-03T16:15:21.724Z,2.02
2017-05-03T16:17:50.044Z,2.03
2017-05-03T16:20:19.077Z,1.78
2017-05-03T16:22:47.409Z,1.80
2017-05-03T16:25:15.688Z,1.58
2017-05-03T16:27:43.972Z,1.52
2017-05-03T16:30:12.293Z,2.15
2017-05-03T16:32:40.581Z,1.58
2017-05-03T16:35:09.387Z,1.63
2017-05-03T16:37:37.708Z,1.28
2017-05-03T16:40:06.019Z,1.53
2017-05-03T16:42:34.301Z,1.23
2017-05-03T16:45:02.627Z,1.38
2017-05-03T16:47:30.909Z,1.20
2017-05-03T16:49:59.204Z,1.52
2017-05-03T16:52:28.265Z,1.50
2017-05-03T16:54:56.544Z,1.13
2017-05-03T16:57:24.821Z,1.52
2017-05-03T16:59:53.136Z,1.65
2017-05-03T17:02:22.165Z,1.10
2017-05-03T17:04:50.445Z,1.47
2017-05-03T17:07:18.773Z,1.58
2017-05-03T17:09:47.081Z,1.60
2017-05-03T17:12:15.361Z,1.60
2017-05-03T17:14:43.665Z,1.88
2017-05-03T17:17:11.952Z,1.93
2017-05-03T17:19:40.250Z,1.50
2017-05-03T17:22:08.573Z,1.60
2017-05-03T17:24:36.854Z,1.85
2017-05-03T17:27:05.136Z,1.65
2017-05-03T17:29:33.454Z,2.23
2017-05-03T17:32:01.745Z,1.55
2017-05-03T17:34:30.020Z,1.90
2017-05-03T17:36:58.343Z,1.63
2017-05-03T17:39:26.620Z,1.82
2017-05-03T17:41:54.902Z,1.98
2017-05-03T17:44:23.217Z,1.50
2017-05-03T17:46:51.497Z,2.55
2017-05-03T17:49:19.777Z,1.83
2017-05-03T17:51:48.092Z,1.82
2017-05-03T17:54:17.113Z,1.60
2017-05-03T17:56:45.393Z,1.68
2017-05-03T17:59:13.709Z,1.65
2017-05-03T18:01:41.993Z,2.23
2017-05-03T18:04:10.289Z,2.10
2017-05-03T18:06:38.615Z,1.67
2017-05-03T18:09:06.893Z,1.72
2017-05-03T18:11:35.169Z,2.37
2017-05-03T18:14:03.486Z,1.90
2017-05-03T18:16:31.773Z,2.10
2017-05-03T18:19:00.054Z,1.78
2017-05-03T18:21:28.373Z,2.07
2017-05-03T18:23:56.673Z,2.32
2017-05-03T18:26:25.915Z,2.05
2017-05-03T18:28:54.253Z,2.48
2017-05-03T18:31:22.530Z,1.95
2017-05-03T18:33:50.808Z,1.77
2017-05-03T18:36:19.133Z,1.77
2017-05-03T18:38:47.433Z,1.92
2017-05-03T18:41:15.724Z,2.05
2017-05-03T18:43:44.044Z,2.28
2017-05-03T18:46:12.324Z,1.80
2017-05-03T18:48:40.604Z,2.25
2017-05-03T18:51:08.959Z,2.88
2017-05-03T18:53:37.238Z,1.93
2017-05-03T18:56:05.521Z,2.18
2017-05-03T18:58:33.833Z,2.35
2017-05-03T19:01:02.125Z,2.37
2017-05-03T19:03:31.144Z,2.25
2017-05-03T19:05:59.470Z,2.73
2017-05-03T19:08:27.748Z,2.25
2017-05-03T19:10:56.029Z,2.65
2017-05-03T19:13:24.352Z,2.63
2017-05-03T19:15:52.637Z,2.38
2017-05-03T19:18:20.925Z,2.38
2017-05-03T19:20:49.247Z,2.95
2017-05-03T19:23:17.533Z,2.13
2017-05-03T19:25:45.814Z,3.22
2017-05-03T19:28:14.137Z,2.58
2017-05-03T19:30:42.420Z,2.90
2017-05-03T19:33:10.706Z,2.97
2017-05-03T19:35:39.044Z,2.62
2017-05-03T19:38:08.068Z,2.20
2017-05-03T19:40:36.340Z,2.57
2017-05-03T19:43:04.661Z,2.10
2017-05-03T19:45:32.941Z,2.43
2017-05-03T19:48:01.273Z,2.20
2017-05-03T19:50:29.585Z,2.65
2017-05-03T19:52:57.865Z,2.82
2017-05-03T19:55:26.145Z,3.05
2017-05-03T19:57:54.451Z,2.57
2017-05-03T20:00:22.744Z,3.23
2017-05-03T20:02:51.034Z,2.80
2017-05-03T20:05:19.357Z,2.35
2017-05-03T20:07:48.330Z,3.10
2017-05-03T20:10:16.609Z,2.73
2017-05-03T20:12:44.923Z,2.83
2017-05-03T20:15:13.198Z,2.53
2017-05-03T20:17:41.490Z,2.92
2017-05-03T20:20:09.806Z,3.25
2017-05-03T20:22:38.101Z,3.18
2017-05-03T20:25:06.385Z,3.10
2017-05-03T20:27:34.701Z,3.03
2017-05-03T20:30:02.993Z,2.90
2017-05-03T20:32:32.017Z,3.08
2017-05-03T20:35:00.331Z,2.92
2017-05-03T20:37:28.610Z,3.17
2017-05-03T20:39:56.915Z,3.68
2017-05-03T20:42:25.229Z,3.23
2017-05-03T20:44:53.515Z,2.92
2017-05-03T20:47:21.807Z,3.30
2017-05-03T20:49:50.128Z,3.98
2017-05-03T20:52:18.405Z,3.52
2017-05-03T20:54:46.688Z,3.42
2017-05-03T20:57:15.000Z,3.92
2017-05-03T20:59:43.277Z,3.50
2017-05-03T21:02:11.578Z,3.42
2017-05-03T21:04:39.909Z,2.88
2017-05-03T21:07:08.929Z,3.47
2017-05-03T21:09:37.213Z,4.10
2017-05-03T21:12:05.549Z,4.15
2017-05-03T21:14:33.825Z,3.83
2017-05-03T21:17:02.099Z,4.07
2017-05-03T21:19:30.416Z,3.60
2017-05-03T21:21:58.692Z,3.57
2017-05-03T21:24:26.973Z,4.40
2017-05-03T21:26:55.414Z,4.25
2017-05-03T21:29:23.874Z,4.10
2017-05-03T21:31:52.181Z,3.32
2017-05-03T21:34:20.489Z,3.57
2017-05-03T21:36:48.759Z,3.48
2017-05-03T21:39:18.514Z,3.58
2017-05-03T21:41:46.833Z,4.10
2017-05-03T21:44:17.634Z,3.23
2017-05-03T21:46:45.977Z,3.35
2017-05-03T21:49:14.258Z,4.23
2017-05-03T21:51:42.532Z,4.05
2017-05-03T21:54:11.022Z,3.83
2017-05-03T21:56:40.644Z,3.58
2017-05-03T21:59:09.009Z,3.80
2017-05-03T22:01:37.337Z,3.67
2017-05-03T22:04:05.682Z,3.63
2017-05-03T22:06:33.957Z,3.23
2017-05-03T22:09:02.268Z,3.87
2017-05-03T22:11:30.553Z,3.77
2017-05-03T22:13:58.825Z,3.77
2017-05-03T22:16:27.137Z,3.55
2017-05-03T22:18:56.158Z,5.48
2017-05-03T22:21:24.433Z,4.00
2017-05-03T22:23:52.772Z,3.40
2017-05-03T22:26:21.087Z,4.23
2017-05-03T22:28:49.367Z,3.75
2017-05-03T22:31:17.689Z,3.75
2017-05-03T22:33:45.972Z,4.32
2017-05-03T22:36:14.252Z,3.62
2017-05-03T22:38:42.558Z,3.73
2017-05-03T22:41:11.633Z,3.98
2017-05-03T22:43:39.913Z,4.18
2017-05-03T22:46:08.229Z,4.47
2017-05-03T22:48:36.505Z,4.20
2017-05-03T22:51:04.781Z,4.55
2017-05-03T22:53:33.076Z,4.58
2017-05-03T22:56:01.374Z,4.65
2017-05-03T22:58:29.651Z,4.40
2017-05-03T23:00:57.977Z,4.35
2017-05-03T23:03:26.994Z,4.75
2017-05-03T23:05:55.274Z,4.80
2017-05-03T23:08:23.573Z,4.18
2017-05-03T23:10:51.848Z,4.75
2017-05-03T23:13:20.126Z,4.72
2017-05-03T23:15:48.429Z,4.47
2017-05-03T23:18:16.701Z,5.28
2017-05-03T23:20:44.977Z,4.60
2017-05-03T23:23:13.299Z,3.87
2017-05-03T23:25:41.582Z,4.57
2017-05-03T23:28:09.861Z,4.55
2017-05-03T23:30:38.182Z,4.70
2017-05-03T23:33:06.460Z,4.88
2017-05-03T23:35:34.740Z,3.98
2017-05-03T23:38:03.033Z,5.30
2017-05-03T23:40:31.345Z,4.62
2017-05-03T23:42:59.617Z,5.18
2017-05-03T23:45:28.690Z,4.90
2017-05-03T23:47:56.981Z,4.32
2017-05-03T23:50:26.001Z,4.63
2017-05-03T23:52:54.302Z,4.37
2017-05-03T23:55:22.581Z,4.98
2017-05-03T23:57:50.848Z,4.50
